Bedford, MA (01730)

12:11 PM EST on November 17, 2017 (GMT -0500)
Old Depot Area | | Change Station

Elev 130 ft 42.49 °N, 71.28 °W | Updated 32 seconds ago

Scattered Clouds
Scattered Clouds
42.3 °F
Feels Like 42 °F
N
3.0
Wind Variable Wind from West

Today
High -- | Low -- °F
--% Chance of Precip.
Yesterday
High -- | Low -- °F
Precip. -- in
Pressure 29.93 in
Visibility 10.0 miles
Clouds Scattered Clouds 4000 ft
Windchill 42 °F
Dew Point 25 °F
Humidity 50%
Rainfall 0.02 in
Snow Depth Not available.
6:38 AM 4:20 PM
Waning Crescent, 1% visible
METAR KBED 171656Z 30019KT 10SM SCT040 05/M06 A2988 RMK AO2 PK WND 29030/1602 SLP134 T00501056
Pressure 29.93 in
Visibility 10.0 miles
Clouds Scattered Clouds 4000 ft
Windchill 42 °F
Dew Point 25 °F
Humidity 50%
Rainfall 0.02 in
Snow Depth Not available.
6:38 AM 4:20 PM
Waning Crescent, 1% visible
METAR KBED 171656Z 30019KT 10SM SCT040 05/M06 A2988 RMK AO2 PK WND 29030/1602 SLP134 T00501056

Get Severe Weather Alerts

Thanks for signing up!

Be on the lookout for a verification email in your inbox.

You'll start receiving the daily forecast at 6 AM.

×

10-Day Weather Forecast

Almanac

Astronomy

Nov. 17, 2017 Rise Set
Actual Time
Civil Twilight
Nautical Twilight
Astronomical Twilight
Moon
Length of Visible Light
Length of Day
Tomorrow will be .
, % of the Moon is Illuminated

Today's Extremes

State Highs State Lows

Community

WunderPhotos

Category 6

Welcome to Category 6. This is the collective home for Weather Underground's featured writeups by Dr. Jeff Masters (right), Bob Henson (left), Chris Burt, and other regular contributors.

Nearby

Air Quality

  Air Quality AQ Index Pollutant
Not available.

Snow Depth

Station Depth Elevation

Earthquake Activity

City Distance Mag. Time & Date
Minimum magnitude displayed is 2.5.

Coastal Water Temperatures

Place Temperature

Stations

Nearby Weather Stations

Station Location Temp. Windchill Dew Point Humidity Wind Precip. Elev Updated Type
                   

Watches & Warnings

There are currently no watches in effect.